Time;durP1;ratioP1;P1;durP2;ratioP2;P2;SDS_P1;SDS_P2;PMS_P1;PMS_P2;Temp;Humidity;BMP_temperature;BMP_pressure;BME280_temperature;BME280_humidity;BME280_pressure;Samples;Min_cycle;Max_cycle;Signal;HPM_P1;HPM_P2
2024/01/03 00:00:49;;;;;;;4.07;0.82;;;;;;;10.31;100.00;98075.19;6276648;28;20344;-69
2024/01/03 00:03:53;;;;;;;10.07;1.10;;;;;;;10.44;100.00;98081.84;6276308;28;20453;-71
2024/01/03 00:06:56;;;;;;;6.50;0.98;;;;;;;10.53;100.00;98083.59;6275601;28;20053;-71
2024/01/03 00:10:00;;;;;;;9.25;1.10;;;;;;;10.63;100.00;98084.41;6276535;28;20064;-70
2024/01/03 00:13:01;;;;;;;5.60;0.80;;;;;;;10.55;100.00;98082.50;6275939;28;20421;-70
2024/01/03 00:16:19;;;;;;;8.02;1.05;;;;;;;10.70;100.00;98092.50;6275851;28;20045;-71
2024/01/03 00:19:22;;;;;;;2.40;0.75;;;;;;;10.87;100.00;98087.25;6276123;28;20053;-70
2024/01/03 00:22:25;;;;;;;4.15;1.50;;;;;;;10.79;100.00;98081.94;6275725;28;20059;-70
2024/01/03 00:25:29;;;;;;;3.95;0.70;;;;;;;10.83;100.00;98074.56;6274820;28;20071;-70
2024/01/03 00:28:31;;;;;;;5.13;0.93;;;;;;;10.75;100.00;98080.56;6275960;28;20052;-70
2024/01/03 00:31:38;;;;;;;3.03;0.50;;;;;;;10.70;100.00;98064.44;6275775;28;20052;-70
2024/01/03 00:34:40;;;;;;;4.15;0.90;;;;;;;10.66;100.00;98071.78;6274568;28;20434;-69
2024/01/03 00:37:43;;;;;;;2.72;0.93;;;;;;;10.60;100.00;98058.41;6274938;28;20106;-70
2024/01/03 00:40:54;;;;;;;7.32;0.85;;;;;;;10.60;100.00;98075.00;6275617;28;20057;-71
2024/01/03 00:43:56;;;;;;;4.57;0.95;;;;;;;10.60;100.00;98090.75;6275399;28;20041;-73
2024/01/03 00:46:58;;;;;;;5.35;1.30;;;;;;;10.56;100.00;98076.25;6274962;28;20052;-72
2024/01/03 00:49:59;;;;;;;3.55;0.95;;;;;;;10.63;100.00;98066.00;6275529;28;20064;-70
2024/01/03 00:53:02;;;;;;;5.47;0.82;;;;;;;10.65;100.00;98067.50;6275377;28;20052;-72
2024/01/03 00:56:05;;;;;;;4.82;1.40;;;;;;;10.61;100.00;98076.66;6274879;28;20049;-71
2024/01/03 00:59:06;;;;;;;6.80;0.98;;;;;;;10.67;100.00;98069.97;6275536;28;20052;-70
2024/01/03 01:02:08;;;;;;;1.85;0.65;;;;;;;10.74;100.00;98064.97;6275160;28;20052;-69
2024/01/03 01:05:10;;;;;;;10.20;1.38;;;;;;;10.58;100.00;98100.59;6274733;28;20041;-70
2024/01/03 01:08:13;;;;;;;10.55;1.88;;;;;;;10.60;100.00;98064.50;6274814;28;20052;-70
2024/01/03 01:11:14;;;;;;;9.05;0.90;;;;;;;10.55;100.00;98050.16;6275135;28;20124;-71
2024/01/03 01:14:15;;;;;;;7.00;1.00;;;;;;;10.62;100.00;98048.56;6274821;28;20155;-70
2024/01/03 01:17:17;;;;;;;7.97;2.28;;;;;;;10.71;100.00;98050.31;6274693;28;20072;-70
2024/01/03 01:20:18;;;;;;;2.83;0.60;;;;;;;10.71;100.00;98066.06;6275473;28;20053;-71
2024/01/03 01:23:21;;;;;;;3.63;1.05;;;;;;;10.80;100.00;98059.94;6274609;28;20083;-71
2024/01/03 01:26:22;;;;;;;5.22;0.93;;;;;;;10.72;100.00;98075.63;6274378;28;20456;-71
2024/01/03 01:29:24;;;;;;;10.10;1.23;;;;;;;10.70;100.00;98060.97;6274833;28;20569;-71
2024/01/03 01:32:25;;;;;;;3.70;0.60;;;;;;;10.71;100.00;98067.88;6274610;28;20357;-70
2024/01/03 01:35:26;;;;;;;6.93;0.85;;;;;;;10.80;100.00;98083.56;6274367;28;20045;-70
2024/01/03 01:38:29;;;;;;;3.60;0.95;;;;;;;10.77;100.00;98083.06;6274467;28;20243;-70
2024/01/03 01:41:30;;;;;;;3.55;0.95;;;;;;;10.68;100.00;98094.47;6274926;28;20056;-70
2024/01/03 01:44:32;;;;;;;6.95;0.90;;;;;;;10.72;100.00;98086.13;6274026;28;20056;-71
2024/01/03 01:47:34;;;;;;;3.20;1.10;;;;;;;10.67;100.00;98117.25;6277409;28;20430;-71
2024/01/03 01:50:36;;;;;;;4.63;1.27;;;;;;;10.71;100.00;98092.34;6279715;28;20049;-70
2024/01/03 01:53:38;;;;;;;7.95;1.05;;;;;;;10.68;100.00;98095.28;6279256;28;20353;-70
2024/01/03 01:56:41;;;;;;;10.57;1.35;;;;;;;10.61;100.00;98096.84;6278894;28;20363;-72
2024/01/03 01:59:42;;;;;;;3.60;1.02;;;;;;;10.55;100.00;98102.69;6279396;28;20357;-70
2024/01/03 02:02:45;;;;;;;2.97;1.10;;;;;;;10.51;100.00;98099.50;6279114;28;20056;-70
2024/01/03 02:05:46;;;;;;;6.25;1.33;;;;;;;10.45;100.00;98101.91;6278973;28;20074;-69
2024/01/03 02:08:49;;;;;;;5.63;1.40;;;;;;;10.41;100.00;98099.56;6279286;28;20056;-70
2024/01/03 02:11:50;;;;;;;5.25;1.17;;;;;;;10.41;100.00;98112.69;6279040;28;20456;-70
2024/01/03 02:14:52;;;;;;;10.02;1.20;;;;;;;10.39;100.00;98106.75;6278375;28;20357;-70
2024/01/03 02:17:54;;;;;;;4.43;1.10;;;;;;;10.34;100.00;98124.75;6279057;28;20049;-69
2024/01/03 02:20:57;;;;;;;11.93;1.35;;;;;;;10.27;100.00;98128.94;6279051;28;20365;-70
2024/01/03 02:24:00;;;;;;;2.53;1.27;;;;;;;10.00;100.00;98126.22;6278629;28;20422;-69
2024/01/03 02:27:01;;;;;;;10.88;1.83;;;;;;;9.77;100.00;98189.50;6277814;28;20464;-68
2024/01/03 02:30:04;;;;;;;12.02;1.25;;;;;;;9.70;100.00;98171.84;6278665;28;20441;-70
2024/01/03 02:33:06;;;;;;;8.85;1.40;;;;;;;9.57;100.00;98183.44;6278679;28;20055;-70
2024/01/03 02:36:07;;;;;;;8.23;1.27;;;;;;;9.50;100.00;98168.41;6277714;28;20378;-71
2024/01/03 02:39:10;;;;;;;9.82;1.05;;;;;;;9.25;100.00;98181.06;6278659;28;20055;-70
2024/01/03 02:42:11;;;;;;;14.98;1.25;;;;;;;9.20;100.00;98182.44;6278248;28;20048;-71
2024/01/03 02:45:13;;;;;;;7.95;1.08;;;;;;;9.02;100.00;98187.53;6277907;28;20041;-70
2024/01/03 02:48:14;;;;;;;4.72;1.23;;;;;;;8.97;100.00;98192.34;6278458;28;20040;-71
2024/01/03 02:51:19;;;;;;;11.13;1.05;;;;;;;8.89;100.00;98201.69;6278159;28;20056;-71
2024/01/03 02:54:22;;;;;;;12.82;1.20;;;;;;;8.89;100.00;98208.72;6278001;28;20198;-71
2024/01/03 02:57:24;;;;;;;7.13;1.23;;;;;;;8.86;100.00;98216.88;6277528;28;20064;-71
2024/01/03 03:00:26;;;;;;;7.03;1.00;;;;;;;8.84;100.00;98214.34;6277383;28;20083;-71
2024/01/03 03:03:27;;;;;;;8.70;0.82;;;;;;;8.83;100.00;98207.47;6277671;28;20049;-70
2024/01/03 03:06:28;;;;;;;3.88;1.25;;;;;;;8.80;100.00;98207.72;6274183;28;20048;-72
2024/01/03 03:09:31;;;;;;;2.60;0.68;;;;;;;8.81;100.00;98205.94;6277089;28;20056;-71
2024/01/03 03:12:32;;;;;;;7.63;0.70;;;;;;;8.74;100.00;98213.50;6277320;28;20053;-70
2024/01/03 03:15:34;;;;;;;6.93;0.80;;;;;;;8.73;100.00;98200.56;6276536;28;20052;-71
2024/01/03 03:18:35;;;;;;;7.57;1.25;;;;;;;8.75;100.00;98206.47;6275793;28;20048;-71
2024/01/03 03:21:37;;;;;;;3.80;0.80;;;;;;;8.74;100.00;98210.06;6277134;28;20345;-70
2024/01/03 03:24:39;;;;;;;16.73;1.30;;;;;;;8.74;100.00;98207.44;6276094;28;20378;-70
2024/01/03 03:27:41;;;;;;;12.45;1.10;;;;;;;8.82;100.00;98200.59;6277035;28;20433;-70
2024/01/03 03:30:42;;;;;;;7.15;1.23;;;;;;;8.84;100.00;98197.81;6276783;28;20045;-71
2024/01/03 03:33:44;;;;;;;8.57;1.00;;;;;;;8.70;100.00;98195.56;6276637;28;20053;-71
2024/01/03 03:36:45;;;;;;;3.50;0.82;;;;;;;8.64;100.00;98200.38;6272153;28;20045;-71
2024/01/03 03:39:48;;;;;;;6.95;1.15;;;;;;;8.67;100.00;98198.44;6276202;28;20051;-71
2024/01/03 03:42:49;;;;;;;5.88;0.90;;;;;;;8.65;100.00;98190.75;6274258;28;20056;-70
2024/01/03 03:45:51;;;;;;;4.63;0.82;;;;;;;8.62;100.00;98207.53;6272698;28;20053;-70
2024/01/03 03:48:52;;;;;;;6.65;1.35;;;;;;;8.62;100.00;98199.66;6276263;28;20068;-70
2024/01/03 03:51:53;;;;;;;6.57;1.20;;;;;;;8.62;100.00;98177.91;6275609;28;20040;-70
2024/01/03 03:54:56;;;;;;;5.50;0.93;;;;;;;8.57;100.00;98187.94;6268695;28;20045;-71
2024/01/03 03:57:57;;;;;;;7.05;1.50;;;;;;;8.61;100.00;98189.34;6276518;28;20056;-71
2024/01/03 04:00:59;;;;;;;4.18;0.70;;;;;;;8.61;100.00;98179.69;6275954;28;20056;-70
2024/01/03 04:04:00;;;;;;;1.13;0.70;;;;;;;8.58;100.00;98172.13;6275854;28;20037;-72
2024/01/03 04:07:01;;;;;;;11.50;1.30;;;;;;;8.60;100.00;98175.44;6273845;28;20049;-71
2024/01/03 04:10:05;;;;;;;9.95;1.52;;;;;;;8.66;100.00;98174.06;6275002;28;20048;-70
2024/01/03 04:13:07;;;;;;;15.02;1.30;;;;;;;8.61;100.00;98173.63;6275700;28;20045;-71
2024/01/03 04:16:09;;;;;;;6.75;1.35;;;;;;;8.63;100.00;98174.34;6275547;28;20049;-70
2024/01/03 04:19:10;;;;;;;10.85;2.30;;;;;;;8.70;100.00;98172.00;6276226;28;20107;-70
2024/01/03 04:22:12;;;;;;;14.65;1.35;;;;;;;8.81;100.00;98172.75;6275820;28;20350;-71
2024/01/03 04:25:15;;;;;;;12.43;1.38;;;;;;;8.95;100.00;98168.91;6275142;28;20045;-71
2024/01/03 04:28:16;;;;;;;7.82;1.10;;;;;;;9.15;100.00;98181.06;6275833;28;20045;-70
2024/01/03 04:31:17;;;;;;;6.07;1.08;;;;;;;9.31;100.00;98174.44;6276456;28;20045;-70
2024/01/03 04:34:19;;;;;;;7.97;1.33;;;;;;;9.31;100.00;98195.41;6275567;28;20052;-71
2024/01/03 04:37:20;;;;;;;7.75;1.00;;;;;;;9.37;100.00;98174.75;6275474;28;20063;-71
2024/01/03 04:40:23;;;;;;;10.30;1.50;;;;;;;9.40;100.00;98199.84;6275817;28;20044;-70
2024/01/03 04:43:24;;;;;;;10.95;1.40;;;;;;;9.47;100.00;98200.13;6275604;28;20052;-71
2024/01/03 04:46:25;;;;;;;9.55;2.25;;;;;;;9.43;100.00;98238.88;6274846;28;20338;-71
2024/01/03 04:49:28;;;;;;;12.00;1.10;;;;;;;9.52;100.00;98235.44;6275897;28;20461;-70
2024/01/03 04:52:30;;;;;;;8.20;1.08;;;;;;;9.55;100.00;98236.97;6275316;28;20057;-71
2024/01/03 04:55:32;;;;;;;4.13;0.90;;;;;;;9.52;100.00;98239.88;6274752;28;20460;-71
2024/01/03 04:58:34;;;;;;;12.70;0.95;;;;;;;9.37;100.00;98229.78;6275451;28;20464;-71
2024/01/03 05:01:35;;;;;;;6.43;1.27;;;;;;;9.25;100.00;98240.53;6275277;28;20049;-71
2024/01/03 05:04:37;;;;;;;4.00;0.98;;;;;;;9.32;100.00;98236.41;6274672;28;20056;-71
2024/01/03 05:07:38;;;;;;;9.15;0.73;;;;;;;9.28;100.00;98261.22;6274850;28;20076;-71
2024/01/03 05:10:41;;;;;;;9.85;0.90;;;;;;;9.32;100.00;98255.59;6275331;28;20051;-71
2024/01/03 05:13:42;;;;;;;9.18;1.05;;;;;;;9.14;100.00;98244.91;6274809;28;20484;-70
2024/01/03 05:16:44;;;;;;;10.82;1.00;;;;;;;9.11;100.00;98237.31;6274516;28;20433;-71
2024/01/03 05:19:45;;;;;;;11.85;2.28;;;;;;;9.07;100.00;98230.69;6274338;28;20049;-71
2024/01/03 05:22:47;;;;;;;5.22;0.95;;;;;;;9.10;100.00;98232.22;6274601;28;20045;-70
2024/01/03 05:25:49;;;;;;;5.07;1.02;;;;;;;9.16;100.00;98234.28;6274347;28;20365;-71
2024/01/03 05:28:51;;;;;;;4.40;1.20;;;;;;;9.18;100.00;98234.19;6274452;28;20596;-71
2024/01/03 05:31:52;;;;;;;5.00;0.98;;;;;;;9.15;100.00;98228.22;6274841;28;20049;-71
2024/01/03 05:34:53;;;;;;;8.73;1.02;;;;;;;9.18;100.00;98223.69;6273764;28;20041;-71
2024/01/03 05:37:55;;;;;;;2.45;0.70;;;;;;;9.26;100.00;98247.41;6274575;28;20060;-70
2024/01/03 05:40:57;;;;;;;3.08;0.93;;;;;;;9.46;100.00;98249.13;6274377;28;20049;-71
2024/01/03 05:43:59;;;;;;;6.13;0.93;;;;;;;9.65;100.00;98240.44;6274633;28;20056;-71
2024/01/03 05:47:01;;;;;;;2.30;1.25;;;;;;;9.69;100.00;98243.63;6274032;28;20049;-71
2024/01/03 05:50:03;;;;;;;9.65;1.23;;;;;;;9.64;100.00;98247.47;6274932;28;20452;-72
2024/01/03 05:53:04;;;;;;;6.97;0.88;;;;;;;9.61;100.00;98249.53;6274300;28;20053;-70
2024/01/03 05:56:08;;;;;;;6.65;1.02;;;;;;;9.69;100.00;98256.72;6274084;28;20358;-71
2024/01/03 05:59:10;;;;;;;10.45;1.40;;;;;;;9.71;100.00;98281.84;6274495;28;20049;-70
2024/01/03 06:02:11;;;;;;;5.63;1.08;;;;;;;9.72;100.00;98317.59;6273971;28;20063;-71
2024/01/03 06:05:16;;;;;;;4.55;1.23;;;;;;;9.74;100.00;98315.66;6274107;28;20041;-72
2024/01/03 06:08:18;;;;;;;7.72;1.17;;;;;;;9.55;100.00;98305.16;6274005;28;20452;-72
2024/01/03 06:11:20;;;;;;;9.77;1.52;;;;;;;9.58;100.00;98299.63;6274528;28;20049;-72
2024/01/03 06:14:22;;;;;;;5.45;1.15;;;;;;;9.48;100.00;98309.25;6273999;28;20111;-71
2024/01/03 06:17:23;;;;;;;2.80;0.85;;;;;;;9.51;100.00;98327.34;6273826;28;20045;-71
2024/01/03 06:20:24;;;;;;;7.28;1.50;;;;;;;9.47;100.00;98297.13;6274492;28;20060;-71
2024/01/03 06:23:26;;;;;;;15.65;1.80;;;;;;;9.48;100.00;98304.03;6274165;28;20045;-72
2024/01/03 06:26:30;;;;;;;4.97;1.17;;;;;;;9.57;100.00;98319.78;6273165;28;20041;-71
2024/01/03 06:29:31;;;;;;;10.25;1.35;;;;;;;9.59;100.00;98317.03;6274225;28;20438;-71
2024/01/03 06:32:33;;;;;;;7.15;1.27;;;;;;;9.57;100.00;98325.00;6273942;28;20057;-71
2024/01/03 06:35:34;;;;;;;12.15;1.42;;;;;;;9.57;100.00;98324.19;6277172;28;20052;-72
2024/01/03 06:38:35;;;;;;;6.53;1.48;;;;;;;9.55;100.00;98334.00;6278603;28;20060;-70
2024/01/03 06:41:38;;;;;;;8.93;0.85;;;;;;;9.52;100.00;98344.75;6278533;28;20049;-71
2024/01/03 06:44:40;;;;;;;6.10;0.77;;;;;;;9.50;100.00;98347.50;6277819;28;20053;-70
2024/01/03 06:47:42;;;;;;;10.90;2.33;;;;;;;9.51;100.00;98353.56;6278304;28;20049;-70
2024/01/03 06:50:43;;;;;;;4.80;1.23;;;;;;;9.57;100.00;98351.22;6278257;28;20048;-70
2024/01/03 06:53:45;;;;;;;6.70;0.95;;;;;;;9.64;100.00;98346.28;6277881;28;20345;-72
2024/01/03 06:56:47;;;;;;;6.47;0.80;;;;;;;9.56;100.00;98348.75;6277171;28;20040;-71
2024/01/03 06:59:49;;;;;;;5.30;1.02;;;;;;;9.50;100.00;98347.50;6278076;28;20057;-71
2024/01/03 07:02:50;;;;;;;5.97;0.88;;;;;;;9.46;100.00;98347.91;6277892;28;20357;-71
2024/01/03 07:05:51;;;;;;;10.23;0.98;;;;;;;9.34;100.00;98370.75;6277306;28;20048;-71
2024/01/03 07:08:53;;;;;;;1.80;0.63;;;;;;;9.33;100.00;98374.34;6270009;28;20052;-70
2024/01/03 07:11:56;;;;;;;4.97;1.20;;;;;;;9.31;100.00;98369.25;6277413;28;20051;-71
2024/01/03 07:14:57;;;;;;;2.63;0.77;;;;;;;9.36;100.00;98380.16;6273748;28;20445;-71
2024/01/03 07:17:59;;;;;;;9.98;1.80;;;;;;;9.38;100.00;98372.16;6276402;28;20052;-69
2024/01/03 07:21:00;;;;;;;3.55;0.57;;;;;;;9.34;100.00;98389.94;6275479;28;20052;-70
2024/01/03 07:24:01;;;;;;;7.85;1.55;;;;;;;9.32;100.00;98377.94;6275318;28;20056;-69
2024/01/03 07:27:05;;;;;;;10.07;1.52;;;;;;;9.38;100.00;98393.13;6276144;28;20052;-69
2024/01/03 07:30:07;;;;;;;5.28;1.67;;;;;;;9.41;100.00;98392.88;6276929;28;20041;-70
2024/01/03 07:33:08;;;;;;;8.15;1.25;;;;;;;9.39;100.00;98400.03;6276614;28;20049;-69
2024/01/03 07:36:10;;;;;;;11.50;1.45;;;;;;;9.46;100.00;98393.31;6275892;28;20056;-70
2024/01/03 07:39:12;;;;;;;8.82;1.30;;;;;;;9.47;100.00;98375.78;6276670;28;20044;-69
2024/01/03 07:42:15;;;;;;;3.58;0.70;;;;;;;9.48;100.00;98378.25;6276563;28;20064;-69
2024/01/03 07:45:16;;;;;;;9.93;1.45;;;;;;;9.57;100.00;98392.34;6276119;28;20191;-70
2024/01/03 07:48:18;;;;;;;6.72;1.13;;;;;;;9.49;100.00;98389.56;6275981;28;20060;-70
2024/01/03 07:51:19;;;;;;;6.50;1.45;;;;;;;9.49;100.00;98389.56;6276750;28;20052;-70
2024/01/03 07:54:20;;;;;;;2.60;0.88;;;;;;;9.39;100.00;98402.63;6276413;28;20354;-70
2024/01/03 07:57:23;;;;;;;6.68;1.15;;;;;;;9.44;100.00;98389.97;6273520;28;20056;-70
2024/01/03 08:00:25;;;;;;;4.93;1.63;;;;;;;9.42;100.00;98402.38;6271588;28;20049;-70
2024/01/03 08:03:26;;;;;;;6.72;1.20;;;;;;;9.41;100.00;98395.50;6270128;28;20048;-70
2024/01/03 08:06:27;;;;;;;9.70;1.05;;;;;;;9.60;100.00;98392.09;6267508;28;20124;-72
2024/01/03 08:09:29;;;;;;;6.00;1.13;;;;;;;9.50;100.00;98392.06;6264978;28;20055;-71
2024/01/03 08:12:32;;;;;;;12.52;1.15;;;;;;;9.60;100.00;98397.34;6266020;28;20055;-70
2024/01/03 08:15:34;;;;;;;10.93;1.42;;;;;;;9.60;100.00;98403.41;6275571;28;20330;-70
2024/01/03 08:18:35;;;;;;;5.75;0.80;;;;;;;9.57;100.00;98390.56;6276240;28;20060;-71
2024/01/03 08:21:36;;;;;;;4.93;0.88;;;;;;;9.61;100.00;98402.44;6274700;28;20049;-70
2024/01/03 08:24:38;;;;;;;3.05;0.73;;;;;;;9.65;100.00;98395.16;6275448;28;20068;-70
2024/01/03 08:27:40;;;;;;;13.13;0.70;;;;;;;9.62;100.00;98401.47;6275953;28;20045;-69
2024/01/03 08:30:42;;;;;;;6.30;1.40;;;;;;;9.70;100.00;98402.63;6275876;28;20049;-69
2024/01/03 08:33:44;;;;;;;10.10;1.40;;;;;;;9.69;100.00;98401.78;6275532;28;20048;-68
2024/01/03 08:36:46;;;;;;;2.58;0.90;;;;;;;9.79;100.00;98400.00;6274934;28;20041;-69
2024/01/03 08:39:48;;;;;;;10.75;1.20;;;;;;;9.79;100.00;98404.44;6275741;28;20048;-69
2024/01/03 08:42:50;;;;;;;5.15;1.08;;;;;;;9.79;100.00;98404.44;6275764;28;20056;-69
2024/01/03 08:45:52;;;;;;;4.32;0.95;;;;;;;9.70;100.00;98408.69;6274978;28;20048;-69
2024/01/03 08:48:54;;;;;;;13.63;1.30;;;;;;;9.76;100.00;98405.53;6275656;28;20048;-69
2024/01/03 08:51:56;;;;;;;1.63;0.88;;;;;;;9.80;100.00;98404.28;6267282;28;20049;-69
2024/01/03 08:54:59;;;;;;;6.32;1.05;;;;;;;9.78;100.00;98414.09;6274821;28;20362;-69
2024/01/03 08:58:02;;;;;;;12.20;1.63;;;;;;;9.72;100.00;98403.28;6274870;28;20480;-68
2024/01/03 09:01:03;;;;;;;5.43;0.85;;;;;;;9.81;100.00;98421.72;6275362;28;20445;-70
2024/01/03 09:04:05;;;;;;;8.32;1.00;;;;;;;9.85;100.00;98409.97;6273713;28;20060;-74
2024/01/03 09:07:06;;;;;;;7.70;1.10;;;;;;;9.91;100.00;98411.22;6269468;28;20056;-70
2024/01/03 09:10:08;;;;;;;0.60;0.60;;;;;;;9.96;100.00;98410.81;6271009;28;20041;-70
2024/01/03 09:13:11;;;;;;;4.18;0.68;;;;;;;9.89;100.00;98415.78;6267953;28;20354;-70
2024/01/03 09:16:13;;;;;;;6.80;0.73;;;;;;;9.95;100.00;98417.00;6256037;28;20081;-70
2024/01/03 09:19:15;;;;;;;4.80;0.80;;;;;;;9.93;100.00;98421.59;6266032;28;21601;-70
2024/01/03 09:22:16;;;;;;;4.78;0.90;;;;;;;10.02;100.00;98418.97;6273631;28;20049;-70
2024/01/03 09:25:18;;;;;;;1.35;0.77;;;;;;;10.07;100.00;98402.81;6270813;28;20059;-71
2024/01/03 09:28:21;;;;;;;3.22;0.88;;;;;;;10.04;100.00;98422.31;6272228;28;20354;-70
2024/01/03 09:31:22;;;;;;;4.40;0.95;;;;;;;10.09;100.00;98424.53;6267763;28;20060;-70
2024/01/03 09:34:23;;;;;;;3.58;0.68;;;;;;;10.08;100.00;98426.31;6270180;28;20049;-70
2024/01/03 09:37:25;;;;;;;3.83;0.85;;;;;;;10.20;100.00;98452.44;6269680;28;20045;-70
2024/01/03 09:40:26;;;;;;;3.75;0.63;;;;;;;10.20;100.00;98434.06;6273070;28;20071;-70
2024/01/03 09:43:31;;;;;;;1.00;0.75;;;;;;;10.32;100.00;98425.13;6271982;28;20339;-70
2024/01/03 09:46:33;;;;;;;8.95;0.93;;;;;;;10.23;100.00;98433.81;6269870;28;20049;-70
2024/01/03 09:49:35;;;;;;;1.45;0.70;;;;;;;10.23;100.00;98432.00;6274748;28;20126;-70
2024/01/03 09:52:40;;;;;;;5.10;0.70;;;;;;;10.27;100.00;98443.09;6274441;28;20466;-70
2024/01/03 09:55:41;;;;;;;3.83;0.73;;;;;;;10.24;100.00;98449.44;6274161;28;20064;-69
2024/01/03 09:58:46;;;;;;;2.15;0.60;;;;;;;10.24;100.00;98443.31;6274692;28;20056;-71
2024/01/03 10:01:58;;;;;;;3.72;0.80;;;;;;;10.30;100.00;98450.69;6269796;28;20064;-71
2024/01/03 10:04:59;;;;;;;9.43;0.80;;;;;;;10.13;100.00;98446.91;6269235;28;20123;-71
2024/01/03 10:08:10;;;;;;;2.60;1.10;;;;;;;10.13;100.00;98450.38;6269063;28;20445;-72
2024/01/03 10:11:21;;;;;;;1.52;0.57;;;;;;;10.23;100.00;98463.50;6259754;28;20060;-70
2024/01/03 10:14:24;;;;;;;1.75;0.60;;;;;;;10.32;100.00;98461.88;6269732;28;20308;-71
2024/01/03 10:17:31;;;;;;;2.35;0.68;;;;;;;10.31;100.00;98463.69;6272921;28;20429;-71
2024/01/03 10:20:34;;;;;;;3.30;0.90;;;;;;;10.20;100.00;98457.69;6278741;28;20053;-71
2024/01/03 10:23:36;;;;;;;3.05;0.60;;;;;;;10.20;100.00;98463.75;6276684;28;20049;-71
2024/01/03 10:26:37;;;;;;;1.48;0.68;;;;;;;10.18;100.00;98478.00;6266016;28;20365;-72
2024/01/03 10:29:40;;;;;;;0.95;0.45;;;;;;;10.19;100.00;98456.84;6261438;28;20053;-69
2024/01/03 10:32:41;;;;;;;5.32;0.32;;;;;;;10.29;100.00;98464.78;6266938;28;20199;-71
2024/01/03 10:35:44;;;;;;;2.33;0.50;;;;;;;10.20;100.00;98460.31;6265067;28;20373;-69
2024/01/03 10:38:45;;;;;;;2.10;0.60;;;;;;;10.20;100.00;98470.81;6271903;28;20045;-71
2024/01/03 10:41:48;;;;;;;4.25;0.65;;;;;;;10.15;100.00;98476.47;6276904;28;20044;-70
2024/01/03 10:44:51;;;;;;;0.68;0.55;;;;;;;10.12;100.00;98497.72;6265310;28;20335;-70
2024/01/03 10:47:53;;;;;;;7.88;0.80;;;;;;;10.09;100.00;98471.75;6261711;28;20045;-71
2024/01/03 10:50:58;;;;;;;3.63;0.57;;;;;;;9.97;100.00;98491.19;6272069;28;20049;-69
2024/01/03 10:54:01;;;;;;;0.28;0.22;;;;;;;9.98;100.00;98488.44;6262447;28;20445;-70
2024/01/03 10:57:03;;;;;;;4.40;1.60;;;;;;;10.03;100.00;98495.91;6266868;28;20445;-69
2024/01/03 11:00:16;;;;;;;2.97;0.50;;;;;;;10.05;100.00;98499.22;6265809;28;20128;-68
2024/01/03 11:03:24;;;;;;;3.38;0.55;;;;;;;10.08;100.00;98512.06;6271707;28;20053;-69
2024/01/03 11:06:33;;;;;;;3.58;0.80;;;;;;;10.08;100.00;98501.56;6271956;28;20124;-69
2024/01/03 11:09:35;;;;;;;2.35;0.93;;;;;;;10.04;100.00;98513.31;6277285;28;20060;-70
2024/01/03 11:12:37;;;;;;;2.20;0.50;;;;;;;10.09;100.00;98508.50;6277504;28;20048;-71
2024/01/03 11:15:43;;;;;;;0.40;0.38;;;;;;;9.99;100.00;98507.63;6273902;28;20049;-71
2024/01/03 11:18:54;;;;;;;0.50;0.50;;;;;;;9.92;100.00;98504.72;6268074;28;20049;-70
2024/01/03 11:21:57;;;;;;;3.22;0.52;;;;;;;9.70;100.00;98518.00;6277229;28;20045;-69
2024/01/03 11:24:59;;;;;;;3.45;0.85;;;;;;;9.63;100.00;98521.16;6266130;28;20365;-69
2024/01/03 11:28:31;;;;;;;3.20;0.80;;;;;;;9.58;100.00;98519.88;6277198;28;20045;-69
2024/01/03 11:31:58;;;;;;;2.28;0.52;;;;;;;9.27;100.00;98517.25;6277342;28;20052;-70
2024/01/03 11:35:00;;;;;;;8.65;0.93;;;;;;;9.21;100.00;98522.97;6264783;28;20126;-71
2024/01/03 11:38:02;;;;;;;3.05;0.55;;;;;;;9.19;100.00;98527.53;6262411;28;20041;-70
2024/01/03 11:41:03;;;;;;;2.10;0.60;;;;;;;9.12;100.00;98529.81;6277309;28;20052;-70
2024/01/03 11:44:05;;;;;;;4.93;0.70;;;;;;;9.10;100.00;98525.66;6276770;28;20453;-70
2024/01/03 11:47:07;;;;;;;2.17;0.70;;;;;;;9.11;100.00;98516.84;6276747;28;20041;-70
2024/01/03 11:50:12;;;;;;;1.27;0.50;;;;;;;9.18;100.00;98514.56;6276556;28;20048;-70
2024/01/03 11:53:13;;;;;;;4.20;0.80;;;;;;;9.13;100.00;98512.31;6276763;28;20048;-71
2024/01/03 11:56:26;;;;;;;0.70;0.70;;;;;;;9.15;100.00;98518.25;6276489;28;20433;-68
2024/01/03 11:59:27;;;;;;;11.73;1.23;;;;;;;9.23;100.00;98510.59;6276718;28;20044;-69
2024/01/03 12:02:30;;;;;;;2.38;0.98;;;;;;;9.32;100.00;98517.69;6276530;28;20049;-69
2024/01/03 12:05:31;;;;;;;7.05;1.15;;;;;;;9.37;100.00;98506.81;6276031;28;20060;-69
2024/01/03 12:08:34;;;;;;;4.40;1.17;;;;;;;9.22;100.00;98513.31;6276382;28;20048;-69
2024/01/03 12:11:36;;;;;;;6.32;1.33;;;;;;;9.10;100.00;98500.28;6276202;28;20159;-69
2024/01/03 12:14:37;;;;;;;2.45;1.20;;;;;;;9.20;100.00;98510.00;6275700;28;20045;-69
2024/01/03 12:17:40;;;;;;;4.65;1.00;;;;;;;9.27;100.00;98498.88;6276102;28;20041;-69
2024/01/03 12:20:41;;;;;;;5.93;0.80;;;;;;;9.32;100.00;98506.38;6276354;28;20044;-70
2024/01/03 12:23:54;;;;;;;2.97;1.10;;;;;;;9.35;100.00;98492.97;6275788;28;20230;-69
2024/01/03 12:26:55;;;;;;;5.35;0.98;;;;;;;9.47;100.00;98509.47;6273694;28;20053;-69
2024/01/03 12:30:14;;;;;;;8.02;1.00;;;;;;;9.48;100.00;98503.28;6265082;28;20051;-69
2024/01/03 12:33:18;;;;;;;2.83;0.80;;;;;;;9.43;100.00;98501.03;6267649;28;20357;-69
2024/01/03 12:36:19;;;;;;;4.35;0.75;;;;;;;9.43;100.00;98508.06;6269067;28;20049;-68
2024/01/03 12:39:20;;;;;;;4.20;1.25;;;;;;;9.23;100.00;98504.53;6258858;28;20056;-68
2024/01/03 12:42:22;;;;;;;1.80;0.85;;;;;;;9.25;100.00;98500.78;6257282;28;20048;-69
2024/01/03 12:45:24;;;;;;;6.05;1.42;;;;;;;9.23;100.00;98499.28;6274196;28;20373;-69
2024/01/03 12:48:26;;;;;;;3.53;1.30;;;;;;;9.28;100.00;98497.91;6269064;28;20063;-68
2024/01/03 12:51:28;;;;;;;2.88;1.00;;;;;;;9.27;100.00;98498.88;6272871;28;20045;-68
2024/01/03 12:54:29;;;;;;;9.63;1.00;;;;;;;9.23;100.00;98505.34;6262449;28;20104;-68
2024/01/03 12:57:31;;;;;;;6.55;1.13;;;;;;;9.29;100.00;98490.88;6269795;28;20041;-69
2024/01/03 13:00:32;;;;;;;7.05;1.40;;;;;;;9.40;100.00;98486.41;6259865;28;20076;-68
2024/01/03 13:03:35;;;;;;;3.80;1.10;;;;;;;9.46;100.00;98474.56;6264679;28;20056;-69
2024/01/03 13:06:36;;;;;;;5.03;1.00;;;;;;;9.46;100.00;98489.47;6258345;28;20041;-67
2024/01/03 13:09:38;;;;;;;4.75;1.02;;;;;;;9.50;100.00;98475.16;6262964;28;20045;-69
2024/01/03 13:12:39;;;;;;;5.90;1.83;;;;;;;9.54;100.00;98469.50;6258160;28;20053;-68
2024/01/03 13:15:40;;;;;;;2.72;0.88;;;;;;;9.52;100.00;98474.03;6261493;28;20362;-69
2024/01/03 13:18:43;;;;;;;5.03;1.00;;;;;;;9.61;100.00;98481.13;6271998;28;20045;-68
2024/01/03 13:21:44;;;;;;;3.58;0.77;;;;;;;9.55;100.00;98486.88;6260666;28;20041;-68
2024/01/03 13:24:46;;;;;;;8.10;1.27;;;;;;;9.55;100.00;98480.81;6263559;28;20052;-69
2024/01/03 13:27:48;;;;;;;2.60;0.77;;;;;;;9.45;100.00;98487.78;6274709;28;20053;-69
2024/01/03 13:30:49;;;;;;;2.40;0.60;;;;;;;9.44;100.00;98483.50;6258525;28;20445;-68
2024/01/03 13:33:52;;;;;;;1.70;0.70;;;;;;;9.45;100.00;98493.88;6263919;28;20456;-68
2024/01/03 13:36:53;;;;;;;1.67;0.98;;;;;;;9.36;100.00;98500.75;6269056;28;20578;-68
2024/01/03 13:39:54;;;;;;;3.42;0.85;;;;;;;9.30;100.00;98509.09;6271739;28;20368;-68
2024/01/03 13:42:56;;;;;;;5.63;1.00;;;;;;;9.26;100.00;98491.97;6274812;28;20053;-67
2024/01/03 13:45:57;;;;;;;7.38;1.10;;;;;;;9.29;100.00;98490.88;6275669;28;20045;-69
2024/01/03 13:49:00;;;;;;;4.45;1.25;;;;;;;9.23;100.00;98492.25;6278781;28;20041;-68
2024/01/03 13:52:04;;;;;;;5.25;0.77;;;;;;;9.34;100.00;98489.53;6277926;28;20056;-69
2024/01/03 13:55:06;;;;;;;4.72;0.65;;;;;;;9.45;100.00;98490.41;6275484;28;20045;-69
2024/01/03 13:58:08;;;;;;;4.10;0.95;;;;;;;9.49;100.00;98499.69;6278798;28;20041;-69
2024/01/03 14:01:09;;;;;;;3.08;1.00;;;;;;;9.57;100.00;98487.56;6279279;28;20460;-69
2024/01/03 14:04:12;;;;;;;6.80;0.95;;;;;;;9.45;100.00;98493.03;6278692;28;20045;-69
2024/01/03 14:07:14;;;;;;;4.55;0.93;;;;;;;9.46;100.00;98486.84;6278211;28;20353;-69
2024/01/03 14:10:15;;;;;;;4.47;0.90;;;;;;;9.45;100.00;98486.03;6269709;28;20045;-69
2024/01/03 14:13:16;;;;;;;6.47;1.60;;;;;;;9.47;100.00;98493.75;6278757;28;20345;-69